Terminal Aerodrome Forecast
Issued by NWS Duluth, MN

Home | Current Version | Previous Version | Text Only | Print | Product List | Glossary On
Versions: 1 2 3 4 5 6 7 8 9 10 11 12 13 14 15 16 17 18 19 20 21 22
358
FTUS43 KDLH 211607 AAB
TAFDLH
TAF AMD
KDLH 211607Z 2116/2212 32019G28KT P6SM SCT025
      TEMPO 2116/2118 -SN
     FM212100 32015G27KT P6SM BKN030
     FM220300 31010G17KT P6SM SCT030
     FM220800 30005KT P6SM SCT030=

USA.gov is the U.S. government's official web portal to all federal, state and local government web resources and services.